sensor_id;sensor_type;location;lat;lon;timestamp;temperature;humidity
4425;DHT22;2225;53.568;13.266;2022-08-20T00:01:09;24.80;95.60
4425;DHT22;2225;53.568;13.266;2022-08-20T00:03:38;24.80;95.60
4425;DHT22;2225;53.568;13.266;2022-08-20T00:06:14;24.80;95.60
4425;DHT22;2225;53.568;13.266;2022-08-20T00:08:43;24.80;95.60
4425;DHT22;2225;53.568;13.266;2022-08-20T00:11:13;24.80;95.60
4425;DHT22;2225;53.568;13.266;2022-08-20T00:13:48;24.80;95.70
4425;DHT22;2225;53.568;13.266;2022-08-20T00:16:19;24.70;95.60
4425;DHT22;2225;53.568;13.266;2022-08-20T00:18:48;24.70;95.60
4425;DHT22;2225;53.568;13.266;2022-08-20T00:21:18;24.70;95.60
4425;DHT22;2225;53.568;13.266;2022-08-20T00:23:48;24.70;95.60
4425;DHT22;2225;53.568;13.266;2022-08-20T00:26:17;24.70;95.60
4425;DHT22;2225;53.568;13.266;2022-08-20T00:28:45;24.70;95.60
4425;DHT22;2225;53.568;13.266;2022-08-20T00:31:15;24.70;95.60
4425;DHT22;2225;53.568;13.266;2022-08-20T00:33:46;24.70;95.70
4425;DHT22;2225;53.568;13.266;2022-08-20T00:36:14;24.60;95.60
4425;DHT22;2225;53.568;13.266;2022-08-20T00:38:44;24.60;95.50
4425;DHT22;2225;53.568;13.266;2022-08-20T00:41:18;24.60;95.60
4425;DHT22;2225;53.568;13.266;2022-08-20T00:44:12;24.60;95.70
4425;DHT22;2225;53.568;13.266;2022-08-20T00:46:44;24.60;95.80
4425;DHT22;2225;53.568;13.266;2022-08-20T00:49:25;24.60;95.70
4425;DHT22;2225;53.568;13.266;2022-08-20T00:52:03;24.60;95.70
4425;DHT22;2225;53.568;13.266;2022-08-20T00:54:55;24.60;95.70
4425;DHT22;2225;53.568;13.266;2022-08-20T00:57:32;24.60;95.80
4425;DHT22;2225;53.568;13.266;2022-08-20T01:00:25;24.50;95.70
4425;DHT22;2225;53.568;13.266;2022-08-20T01:02:58;24.50;95.60
4425;DHT22;2225;53.568;13.266;2022-08-20T01:05:26;24.50;95.60
4425;DHT22;2225;53.568;13.266;2022-08-20T01:07:55;24.50;95.60
4425;DHT22;2225;53.568;13.266;2022-08-20T01:10:27;24.50;95.70
4425;DHT22;2225;53.568;13.266;2022-08-20T01:12:58;24.50;95.70
4425;DHT22;2225;53.568;13.266;2022-08-20T01:15:28;24.50;95.70
4425;DHT22;2225;53.568;13.266;2022-08-20T01:17:58;24.50;95.80
4425;DHT22;2225;53.568;13.266;2022-08-20T01:20:31;24.50;95.80
4425;DHT22;2225;53.568;13.266;2022-08-20T01:23:20;24.50;95.80
4425;DHT22;2225;53.568;13.266;2022-08-20T01:28:33;24.50;95.80
4425;DHT22;2225;53.568;13.266;2022-08-20T01:31:12;24.50;95.80
4425;DHT22;2225;53.568;13.266;2022-08-20T01:33:43;24.40;95.80
4425;DHT22;2225;53.568;13.266;2022-08-20T01:36:13;24.40;95.80
4425;DHT22;2225;53.568;13.266;2022-08-20T01:38:40;24.40;95.80
4425;DHT22;2225;53.568;13.266;2022-08-20T01:44:45;24.40;96.00
4425;DHT22;2225;53.568;13.266;2022-08-20T01:47:27;24.40;95.80
4425;DHT22;2225;53.568;13.266;2022-08-20T01:50:15;24.40;96.00
4425;DHT22;2225;53.568;13.266;2022-08-20T01:52:54;24.40;96.00
4425;DHT22;2225;53.568;13.266;2022-08-20T01:55:25;24.40;95.90
4425;DHT22;2225;53.568;13.266;2022-08-20T01:57:53;24.40;95.90
4425;DHT22;2225;53.568;13.266;2022-08-20T02:00:21;24.40;95.90
4425;DHT22;2225;53.568;13.266;2022-08-20T02:02:49;24.40;96.00
4425;DHT22;2225;53.568;13.266;2022-08-20T02:05:17;24.40;96.00
4425;DHT22;2225;53.568;13.266;2022-08-20T02:07:45;24.40;95.90
4425;DHT22;2225;53.568;13.266;2022-08-20T02:10:14;24.40;95.90
4425;DHT22;2225;53.568;13.266;2022-08-20T02:12:42;24.40;95.90
4425;DHT22;2225;53.568;13.266;2022-08-20T02:15:10;24.40;95.90
4425;DHT22;2225;53.568;13.266;2022-08-20T02:17:38;24.40;95.90
4425;DHT22;2225;53.568;13.266;2022-08-20T02:20:09;24.40;95.90
4425;DHT22;2225;53.568;13.266;2022-08-20T02:22:51;24.50;95.90
4425;DHT22;2225;53.568;13.266;2022-08-20T02:25:25;24.50;95.90
4425;DHT22;2225;53.568;13.266;2022-08-20T02:27:58;24.40;95.80
4425;DHT22;2225;53.568;13.266;2022-08-20T02:30:30;24.40;95.80
4425;DHT22;2225;53.568;13.266;2022-08-20T02:33:01;24.40;95.80
4425;DHT22;2225;53.568;13.266;2022-08-20T02:35:30;24.40;95.80
4425;DHT22;2225;53.568;13.266;2022-08-20T02:37:59;24.40;95.80
4425;DHT22;2225;53.568;13.266;2022-08-20T02:40:28;24.40;95.80
4425;DHT22;2225;53.568;13.266;2022-08-20T02:42:58;24.40;95.80
4425;DHT22;2225;53.568;13.266;2022-08-20T02:45:27;24.30;95.80
4425;DHT22;2225;53.568;13.266;2022-08-20T02:47:54;24.30;95.80
4425;DHT22;2225;53.568;13.266;2022-08-20T02:50:24;24.30;95.80
4425;DHT22;2225;53.568;13.266;2022-08-20T02:52:52;24.30;95.80
4425;DHT22;2225;53.568;13.266;2022-08-20T02:55:20;24.30;95.80
4425;DHT22;2225;53.568;13.266;2022-08-20T02:57:58;24.30;96.20
4425;DHT22;2225;53.568;13.266;2022-08-20T03:00:28;24.30;96.00
4425;DHT22;2225;53.568;13.266;2022-08-20T03:03:05;24.30;96.00
4425;DHT22;2225;53.568;13.266;2022-08-20T03:05:34;24.30;96.00
4425;DHT22;2225;53.568;13.266;2022-08-20T03:08:05;24.30;96.00
4425;DHT22;2225;53.568;13.266;2022-08-20T03:10:34;24.30;96.00
4425;DHT22;2225;53.568;13.266;2022-08-20T03:13:04;24.30;96.00
4425;DHT22;2225;53.568;13.266;2022-08-20T03:15:32;24.30;95.90
4425;DHT22;2225;53.568;13.266;2022-08-20T03:17:59;24.30;95.90
4425;DHT22;2225;53.568;13.266;2022-08-20T03:20:27;24.30;96.00
4425;DHT22;2225;53.568;13.266;2022-08-20T03:22:55;24.30;96.00
4425;DHT22;2225;53.568;13.266;2022-08-20T03:25:22;24.30;96.00
4425;DHT22;2225;53.568;13.266;2022-08-20T03:27:52;24.30;96.00
4425;DHT22;2225;53.568;13.266;2022-08-20T03:30:22;24.20;96.00
4425;DHT22;2225;53.568;13.266;2022-08-20T03:32:50;24.20;96.00
4425;DHT22;2225;53.568;13.266;2022-08-20T03:35:19;24.20;96.00
4425;DHT22;2225;53.568;13.266;2022-08-20T03:37:49;24.20;96.10
4425;DHT22;2225;53.568;13.266;2022-08-20T03:40:23;24.20;96.10
4425;DHT22;2225;53.568;13.266;2022-08-20T03:42:51;24.20;96.20
4425;DHT22;2225;53.568;13.266;2022-08-20T03:45:19;24.20;96.10
4425;DHT22;2225;53.568;13.266;2022-08-20T03:47:49;24.20;96.10
4425;DHT22;2225;53.568;13.266;2022-08-20T03:50:19;24.20;96.10
4425;DHT22;2225;53.568;13.266;2022-08-20T03:52:53;24.20;96.10
4425;DHT22;2225;53.568;13.266;2022-08-20T03:55:22;24.20;96.20
4425;DHT22;2225;53.568;13.266;2022-08-20T03:57:53;24.20;96.20
4425;DHT22;2225;53.568;13.266;2022-08-20T04:00:28;24.20;96.20
4425;DHT22;2225;53.568;13.266;2022-08-20T04:02:59;24.20;96.10
4425;DHT22;2225;53.568;13.266;2022-08-20T04:05:28;24.20;96.10
4425;DHT22;2225;53.568;13.266;2022-08-20T04:07:57;24.20;96.10
4425;DHT22;2225;53.568;13.266;2022-08-20T04:10:29;24.20;96.10
4425;DHT22;2225;53.568;13.266;2022-08-20T04:12:57;24.10;96.10
4425;DHT22;2225;53.568;13.266;2022-08-20T04:15:25;24.20;96.10
4425;DHT22;2225;53.568;13.266;2022-08-20T04:17:52;24.10;96.10
4425;DHT22;2225;53.568;13.266;2022-08-20T04:20:21;24.10;96.10
4425;DHT22;2225;53.568;13.266;2022-08-20T04:22:53;24.10;96.10
4425;DHT22;2225;53.568;13.266;2022-08-20T04:25:26;24.10;96.10
4425;DHT22;2225;53.568;13.266;2022-08-20T04:27:59;24.10;96.10
4425;DHT22;2225;53.568;13.266;2022-08-20T04:30:28;24.10;96.10
4425;DHT22;2225;53.568;13.266;2022-08-20T04:32:55;24.10;96.10
4425;DHT22;2225;53.568;13.266;2022-08-20T04:35:22;24.10;96.10
4425;DHT22;2225;53.568;13.266;2022-08-20T04:37:58;24.10;96.20
4425;DHT22;2225;53.568;13.266;2022-08-20T04:40:27;24.10;96.30
4425;DHT22;2225;53.568;13.266;2022-08-20T04:43:12;24.10;96.20
4425;DHT22;2225;53.568;13.266;2022-08-20T04:45:40;24.10;96.30
4425;DHT22;2225;53.568;13.266;2022-08-20T04:48:07;24.10;96.40
4425;DHT22;2225;53.568;13.266;2022-08-20T04:50:42;24.10;96.40
4425;DHT22;2225;53.568;13.266;2022-08-20T04:53:12;24.10;96.40
4425;DHT22;2225;53.568;13.266;2022-08-20T04:55:41;24.10;96.40
4425;DHT22;2225;53.568;13.266;2022-08-20T04:58:14;24.10;96.50
4425;DHT22;2225;53.568;13.266;2022-08-20T05:00:48;24.10;96.50
4425;DHT22;2225;53.568;13.266;2022-08-20T05:03:18;24.10;96.50
4425;DHT22;2225;53.568;13.266;2022-08-20T05:05:46;24.10;96.50
4425;DHT22;2225;53.568;13.266;2022-08-20T05:08:14;24.20;96.60
4425;DHT22;2225;53.568;13.266;2022-08-20T05:10:46;24.10;96.70
4425;DHT22;2225;53.568;13.266;2022-08-20T05:13:13;24.10;96.70
4425;DHT22;2225;53.568;13.266;2022-08-20T05:15:40;24.10;96.50
4425;DHT22;2225;53.568;13.266;2022-08-20T05:18:07;24.20;96.60
4425;DHT22;2225;53.568;13.266;2022-08-20T05:20:40;24.20;96.60
4425;DHT22;2225;53.568;13.266;2022-08-20T05:23:09;24.10;96.50
4425;DHT22;2225;53.568;13.266;2022-08-20T05:25:39;24.20;96.60
4425;DHT22;2225;53.568;13.266;2022-08-20T05:28:10;24.20;96.60
4425;DHT22;2225;53.568;13.266;2022-08-20T05:30:41;24.20;96.60
4425;DHT22;2225;53.568;13.266;2022-08-20T05:33:14;24.20;96.70
4425;DHT22;2225;53.568;13.266;2022-08-20T05:35:45;24.20;96.70
4425;DHT22;2225;53.568;13.266;2022-08-20T05:38:14;24.20;96.80
4425;DHT22;2225;53.568;13.266;2022-08-20T05:40:44;24.20;96.80
4425;DHT22;2225;53.568;13.266;2022-08-20T05:43:11;24.30;96.80
4425;DHT22;2225;53.568;13.266;2022-08-20T05:45:40;24.30;96.70
4425;DHT22;2225;53.568;13.266;2022-08-20T05:48:13;24.30;96.70
4425;DHT22;2225;53.568;13.266;2022-08-20T05:50:43;24.30;96.80
4425;DHT22;2225;53.568;13.266;2022-08-20T05:53:11;24.30;96.70
4425;DHT22;2225;53.568;13.266;2022-08-20T05:55:38;24.30;96.70
4425;DHT22;2225;53.568;13.266;2022-08-20T05:58:13;24.40;96.70
4425;DHT22;2225;53.568;13.266;2022-08-20T06:00:44;24.40;96.60
4425;DHT22;2225;53.568;13.266;2022-08-20T06:03:12;24.40;96.60
4425;DHT22;2225;53.568;13.266;2022-08-20T06:05:59;24.40;96.80
4425;DHT22;2225;53.568;13.266;2022-08-20T06:08:26;24.40;96.90
4425;DHT22;2225;53.568;13.266;2022-08-20T06:10:54;24.40;96.90
4425;DHT22;2225;53.568;13.266;2022-08-20T06:13:22;24.50;96.80
4425;DHT22;2225;53.568;13.266;2022-08-20T06:15:49;24.50;96.80
4425;DHT22;2225;53.568;13.266;2022-08-20T06:18:16;24.50;96.60
4425;DHT22;2225;53.568;13.266;2022-08-20T06:20:54;24.50;96.50
4425;DHT22;2225;53.568;13.266;2022-08-20T06:23:21;24.60;96.50
4425;DHT22;2225;53.568;13.266;2022-08-20T06:25:51;24.60;96.40
4425;DHT22;2225;53.568;13.266;2022-08-20T06:28:18;24.60;96.30
4425;DHT22;2225;53.568;13.266;2022-08-20T06:30:45;24.60;96.30
4425;DHT22;2225;53.568;13.266;2022-08-20T06:33:12;24.60;96.40
4425;DHT22;2225;53.568;13.266;2022-08-20T06:35:39;24.70;96.50
4425;DHT22;2225;53.568;13.266;2022-08-20T06:38:09;24.70;96.40
4425;DHT22;2225;53.568;13.266;2022-08-20T06:40:38;24.70;96.20
4425;DHT22;2225;53.568;13.266;2022-08-20T06:43:05;24.70;96.10
4425;DHT22;2225;53.568;13.266;2022-08-20T06:45:35;24.70;96.00
4425;DHT22;2225;53.568;13.266;2022-08-20T06:48:07;24.70;96.10
4425;DHT22;2225;53.568;13.266;2022-08-20T06:50:43;24.70;96.10
4425;DHT22;2225;53.568;13.266;2022-08-20T06:53:16;24.80;96.20
4425;DHT22;2225;53.568;13.266;2022-08-20T06:55:47;24.80;96.10
4425;DHT22;2225;53.568;13.266;2022-08-20T06:58:17;24.80;96.00
4425;DHT22;2225;53.568;13.266;2022-08-20T07:01:10;24.80;96.00
4425;DHT22;2225;53.568;13.266;2022-08-20T07:03:39;24.80;96.10
4425;DHT22;2225;53.568;13.266;2022-08-20T07:06:19;24.80;95.90
4425;DHT22;2225;53.568;13.266;2022-08-20T07:08:46;24.90;95.90
4425;DHT22;2225;53.568;13.266;2022-08-20T07:11:13;24.80;95.80
4425;DHT22;2225;53.568;13.266;2022-08-20T07:13:40;24.90;95.70
4425;DHT22;2225;53.568;13.266;2022-08-20T07:16:08;24.90;95.70
4425;DHT22;2225;53.568;13.266;2022-08-20T07:18:35;24.90;95.90
4425;DHT22;2225;53.568;13.266;2022-08-20T07:21:02;24.90;95.80
4425;DHT22;2225;53.568;13.266;2022-08-20T07:23:29;24.90;95.50
4425;DHT22;2225;53.568;13.266;2022-08-20T07:25:57;24.90;95.60
4425;DHT22;2225;53.568;13.266;2022-08-20T07:28:25;24.90;95.50
4425;DHT22;2225;53.568;13.266;2022-08-20T07:30:58;25.00;95.50
4425;DHT22;2225;53.568;13.266;2022-08-20T07:33:46;25.00;95.30
4425;DHT22;2225;53.568;13.266;2022-08-20T07:36:16;25.00;95.10
4425;DHT22;2225;53.568;13.266;2022-08-20T07:38:43;25.00;95.10
4425;DHT22;2225;53.568;13.266;2022-08-20T07:41:12;25.00;95.10
4425;DHT22;2225;53.568;13.266;2022-08-20T07:43:42;25.00;95.20
4425;DHT22;2225;53.568;13.266;2022-08-20T07:46:16;25.00;95.20
4425;DHT22;2225;53.568;13.266;2022-08-20T07:48:48;25.00;95.10
4425;DHT22;2225;53.568;13.266;2022-08-20T07:51:20;25.00;95.20
4425;DHT22;2225;53.568;13.266;2022-08-20T07:53:49;25.10;95.10
4425;DHT22;2225;53.568;13.266;2022-08-20T07:56:20;25.10;95.50
4425;DHT22;2225;53.568;13.266;2022-08-20T07:58:52;25.10;95.60
4425;DHT22;2225;53.568;13.266;2022-08-20T08:01:24;25.10;95.20
4425;DHT22;2225;53.568;13.266;2022-08-20T08:03:54;25.10;95.30
4425;DHT22;2225;53.568;13.266;2022-08-20T08:06:24;25.20;95.40
4425;DHT22;2225;53.568;13.266;2022-08-20T08:09:12;25.20;95.30
4425;DHT22;2225;53.568;13.266;2022-08-20T08:11:43;25.20;94.90
4425;DHT22;2225;53.568;13.266;2022-08-20T08:14:18;25.20;94.90
4425;DHT22;2225;53.568;13.266;2022-08-20T08:16:49;25.30;94.90
4425;DHT22;2225;53.568;13.266;2022-08-20T08:19:17;25.30;95.00
4425;DHT22;2225;53.568;13.266;2022-08-20T08:21:44;25.30;94.90
4425;DHT22;2225;53.568;13.266;2022-08-20T08:24:11;25.40;94.90
4425;DHT22;2225;53.568;13.266;2022-08-20T08:26:46;25.40;94.60
4425;DHT22;2225;53.568;13.266;2022-08-20T08:29:15;25.40;94.80
4425;DHT22;2225;53.568;13.266;2022-08-20T08:31:42;25.40;94.90
4425;DHT22;2225;53.568;13.266;2022-08-20T08:34:09;25.50;94.90
4425;DHT22;2225;53.568;13.266;2022-08-20T08:36:37;25.60;95.00
4425;DHT22;2225;53.568;13.266;2022-08-20T08:39:04;25.60;94.70
4425;DHT22;2225;53.568;13.266;2022-08-20T08:41:35;25.70;94.60
4425;DHT22;2225;53.568;13.266;2022-08-20T08:44:06;25.70;94.40
4425;DHT22;2225;53.568;13.266;2022-08-20T08:46:41;25.80;94.00
4425;DHT22;2225;53.568;13.266;2022-08-20T08:49:14;25.90;94.00
4425;DHT22;2225;53.568;13.266;2022-08-20T08:51:52;26.00;93.20
4425;DHT22;2225;53.568;13.266;2022-08-20T08:54:27;26.00;92.10
4425;DHT22;2225;53.568;13.266;2022-08-20T08:56:57;26.00;92.10
4425;DHT22;2225;53.568;13.266;2022-08-20T08:59:27;26.00;92.40
4425;DHT22;2225;53.568;13.266;2022-08-20T09:02:19;26.10;92.60
4425;DHT22;2225;53.568;13.266;2022-08-20T09:04:48;26.20;92.30
4425;DHT22;2225;53.568;13.266;2022-08-20T09:07:17;26.20;92.20
4425;DHT22;2225;53.568;13.266;2022-08-20T09:09:44;26.30;92.20
4425;DHT22;2225;53.568;13.266;2022-08-20T09:12:19;26.40;91.40
4425;DHT22;2225;53.568;13.266;2022-08-20T09:14:49;26.40;91.30
4425;DHT22;2225;53.568;13.266;2022-08-20T09:17:19;26.50;91.30
4425;DHT22;2225;53.568;13.266;2022-08-20T09:19:47;26.60;91.40
4425;DHT22;2225;53.568;13.266;2022-08-20T09:22:19;26.70;90.90
4425;DHT22;2225;53.568;13.266;2022-08-20T09:24:48;26.80;90.30
4425;DHT22;2225;53.568;13.266;2022-08-20T09:27:16;26.80;90.00
4425;DHT22;2225;53.568;13.266;2022-08-20T09:29:43;26.80;89.50
4425;DHT22;2225;53.568;13.266;2022-08-20T09:32:12;26.90;89.40
4425;DHT22;2225;53.568;13.266;2022-08-20T09:34:45;26.90;89.40
4425;DHT22;2225;53.568;13.266;2022-08-20T09:37:14;27.00;89.80
4425;DHT22;2225;53.568;13.266;2022-08-20T09:39:41;27.00;88.10
4425;DHT22;2225;53.568;13.266;2022-08-20T09:42:17;27.10;89.40
4425;DHT22;2225;53.568;13.266;2022-08-20T09:44:46;27.20;87.10
4425;DHT22;2225;53.568;13.266;2022-08-20T09:47:13;27.20;86.80
4425;DHT22;2225;53.568;13.266;2022-08-20T09:49:41;27.30;87.10
4425;DHT22;2225;53.568;13.266;2022-08-20T09:52:09;27.30;86.90
4425;DHT22;2225;53.568;13.266;2022-08-20T09:54:39;27.40;87.00
4425;DHT22;2225;53.568;13.266;2022-08-20T09:57:13;27.40;86.90
4425;DHT22;2225;53.568;13.266;2022-08-20T09:59:40;27.60;86.10
4425;DHT22;2225;53.568;13.266;2022-08-20T10:02:08;27.60;85.70
4425;DHT22;2225;53.568;13.266;2022-08-20T10:04:35;27.70;84.50
4425;DHT22;2225;53.568;13.266;2022-08-20T10:07:06;27.80;84.70
4425;DHT22;2225;53.568;13.266;2022-08-20T10:09:35;27.90;83.80
4425;DHT22;2225;53.568;13.266;2022-08-20T10:12:03;27.90;84.70
4425;DHT22;2225;53.568;13.266;2022-08-20T10:14:30;28.00;83.30
4425;DHT22;2225;53.568;13.266;2022-08-20T10:16:58;28.10;84.20
4425;DHT22;2225;53.568;13.266;2022-08-20T10:19:27;28.20;84.20
4425;DHT22;2225;53.568;13.266;2022-08-20T10:21:56;28.20;81.90
4425;DHT22;2225;53.568;13.266;2022-08-20T10:24:24;28.30;81.60
4425;DHT22;2225;53.568;13.266;2022-08-20T10:26:56;28.30;82.00
4425;DHT22;2225;53.568;13.266;2022-08-20T10:29:25;28.40;81.40
4425;DHT22;2225;53.568;13.266;2022-08-20T10:31:53;28.50;82.30
4425;DHT22;2225;53.568;13.266;2022-08-20T10:34:22;28.60;82.60
4425;DHT22;2225;53.568;13.266;2022-08-20T10:36:49;28.60;80.80
4425;DHT22;2225;53.568;13.266;2022-08-20T10:39:16;28.70;80.40
4425;DHT22;2225;53.568;13.266;2022-08-20T10:41:43;28.70;79.90
4425;DHT22;2225;53.568;13.266;2022-08-20T10:44:10;28.70;80.10
4425;DHT22;2225;53.568;13.266;2022-08-20T10:46:37;28.70;78.70
4425;DHT22;2225;53.568;13.266;2022-08-20T10:49:04;28.70;78.60
4425;DHT22;2225;53.568;13.266;2022-08-20T10:51:31;28.70;77.80
4425;DHT22;2225;53.568;13.266;2022-08-20T10:53:59;28.70;78.10
4425;DHT22;2225;53.568;13.266;2022-08-20T10:56:26;28.60;78.30
4425;DHT22;2225;53.568;13.266;2022-08-20T10:58:52;28.60;78.20
4425;DHT22;2225;53.568;13.266;2022-08-20T11:01:19;28.60;78.80
4425;DHT22;2225;53.568;13.266;2022-08-20T11:03:58;28.60;78.30
4425;DHT22;2225;53.568;13.266;2022-08-20T11:06:25;28.60;78.20
4425;DHT22;2225;53.568;13.266;2022-08-20T11:08:52;28.70;78.00
4425;DHT22;2225;53.568;13.266;2022-08-20T11:11:22;28.70;78.20
4425;DHT22;2225;53.568;13.266;2022-08-20T11:13:49;28.70;77.90
4425;DHT22;2225;53.568;13.266;2022-08-20T11:16:16;28.70;77.90
4425;DHT22;2225;53.568;13.266;2022-08-20T11:18:43;28.80;79.10
4425;DHT22;2225;53.568;13.266;2022-08-20T11:21:13;28.80;78.10
4425;DHT22;2225;53.568;13.266;2022-08-20T11:23:40;28.90;77.80
4425;DHT22;2225;53.568;13.266;2022-08-20T11:26:07;28.90;77.50
4425;DHT22;2225;53.568;13.266;2022-08-20T11:28:34;29.00;77.10
4425;DHT22;2225;53.568;13.266;2022-08-20T11:31:01;29.00;77.30
4425;DHT22;2225;53.568;13.266;2022-08-20T11:33:28;29.10;77.50
4425;DHT22;2225;53.568;13.266;2022-08-20T11:35:55;29.10;77.20
4425;DHT22;2225;53.568;13.266;2022-08-20T11:38:22;29.10;77.70
4425;DHT22;2225;53.568;13.266;2022-08-20T11:40:49;29.10;77.40
4425;DHT22;2225;53.568;13.266;2022-08-20T11:43:16;29.10;78.00
4425;DHT22;2225;53.568;13.266;2022-08-20T11:45:46;29.00;78.10
4425;DHT22;2225;53.568;13.266;2022-08-20T11:48:16;29.00;78.40
4425;DHT22;2225;53.568;13.266;2022-08-20T11:50:44;29.00;78.40
4425;DHT22;2225;53.568;13.266;2022-08-20T11:53:11;29.00;77.90
4425;DHT22;2225;53.568;13.266;2022-08-20T11:55:40;28.90;77.80
4425;DHT22;2225;53.568;13.266;2022-08-20T11:58:08;28.90;78.40
4425;DHT22;2225;53.568;13.266;2022-08-20T12:00:35;28.90;77.80
4425;DHT22;2225;53.568;13.266;2022-08-20T12:03:04;28.90;77.60
4425;DHT22;2225;53.568;13.266;2022-08-20T12:05:39;28.90;77.70
4425;DHT22;2225;53.568;13.266;2022-08-20T12:08:09;28.80;77.70
4425;DHT22;2225;53.568;13.266;2022-08-20T12:10:57;28.80;77.10
4425;DHT22;2225;53.568;13.266;2022-08-20T12:13:33;28.80;77.30
4425;DHT22;2225;53.568;13.266;2022-08-20T12:16:15;28.80;77.20
4425;DHT22;2225;53.568;13.266;2022-08-20T12:18:43;28.70;77.20
4425;DHT22;2225;53.568;13.266;2022-08-20T12:21:10;28.70;77.70
4425;DHT22;2225;53.568;13.266;2022-08-20T12:23:37;28.70;77.30
4425;DHT22;2225;53.568;13.266;2022-08-20T12:26:04;28.60;77.40
4425;DHT22;2225;53.568;13.266;2022-08-20T12:28:31;28.60;78.00
4425;DHT22;2225;53.568;13.266;2022-08-20T12:30:58;28.50;77.20
4425;DHT22;2225;53.568;13.266;2022-08-20T12:33:25;28.50;77.30
4425;DHT22;2225;53.568;13.266;2022-08-20T12:35:52;28.50;76.80
4425;DHT22;2225;53.568;13.266;2022-08-20T12:38:19;28.40;77.40
4425;DHT22;2225;53.568;13.266;2022-08-20T12:40:46;28.40;77.40
4425;DHT22;2225;53.568;13.266;2022-08-20T12:43:13;28.40;77.60
4425;DHT22;2225;53.568;13.266;2022-08-20T12:45:40;28.40;77.90
4425;DHT22;2225;53.568;13.266;2022-08-20T12:48:10;28.40;78.20
4425;DHT22;2225;53.568;13.266;2022-08-20T12:50:40;28.40;78.60
4425;DHT22;2225;53.568;13.266;2022-08-20T12:53:08;28.40;78.90
4425;DHT22;2225;53.568;13.266;2022-08-20T12:55:35;28.40;80.00
4425;DHT22;2225;53.568;13.266;2022-08-20T12:58:03;28.40;78.90
4425;DHT22;2225;53.568;13.266;2022-08-20T13:00:39;28.50;78.60
4425;DHT22;2225;53.568;13.266;2022-08-20T13:03:12;28.60;78.80
4425;DHT22;2225;53.568;13.266;2022-08-20T13:05:40;28.60;78.50
4425;DHT22;2225;53.568;13.266;2022-08-20T13:08:09;28.60;78.40
4425;DHT22;2225;53.568;13.266;2022-08-20T13:10:40;28.60;78.10
4425;DHT22;2225;53.568;13.266;2022-08-20T13:13:12;28.70;78.80
4425;DHT22;2225;53.568;13.266;2022-08-20T13:15:40;28.70;79.00
4425;DHT22;2225;53.568;13.266;2022-08-20T13:18:07;28.70;78.80
4425;DHT22;2225;53.568;13.266;2022-08-20T13:20:34;28.80;77.50
4425;DHT22;2225;53.568;13.266;2022-08-20T13:23:03;28.80;77.50
4425;DHT22;2225;53.568;13.266;2022-08-20T13:25:30;28.80;77.90
4425;DHT22;2225;53.568;13.266;2022-08-20T13:28:00;28.80;77.80
4425;DHT22;2225;53.568;13.266;2022-08-20T13:30:31;28.80;76.20
4425;DHT22;2225;53.568;13.266;2022-08-20T13:32:59;28.80;76.60
4425;DHT22;2225;53.568;13.266;2022-08-20T13:35:26;28.80;76.30
4425;DHT22;2225;53.568;13.266;2022-08-20T13:37:53;28.70;76.60
4425;DHT22;2225;53.568;13.266;2022-08-20T13:40:20;28.70;76.40
4425;DHT22;2225;53.568;13.266;2022-08-20T13:42:47;28.70;77.20
4425;DHT22;2225;53.568;13.266;2022-08-20T13:45:14;28.70;76.60
4425;DHT22;2225;53.568;13.266;2022-08-20T13:47:42;28.60;76.60
4425;DHT22;2225;53.568;13.266;2022-08-20T13:50:17;28.60;77.00
4425;DHT22;2225;53.568;13.266;2022-08-20T13:52:45;28.60;77.50
4425;DHT22;2225;53.568;13.266;2022-08-20T13:55:16;28.60;76.80
4425;DHT22;2225;53.568;13.266;2022-08-20T13:57:45;28.60;77.90
4425;DHT22;2225;53.568;13.266;2022-08-20T14:00:17;28.60;77.50
4425;DHT22;2225;53.568;13.266;2022-08-20T14:03:04;28.60;77.80
4425;DHT22;2225;53.568;13.266;2022-08-20T14:05:32;28.60;78.00
4425;DHT22;2225;53.568;13.266;2022-08-20T14:08:06;28.60;78.20
4425;DHT22;2225;53.568;13.266;2022-08-20T14:10:44;28.50;78.10
4425;DHT22;2225;53.568;13.266;2022-08-20T14:13:18;28.50;77.70
4425;DHT22;2225;53.568;13.266;2022-08-20T14:15:47;28.50;77.50
4425;DHT22;2225;53.568;13.266;2022-08-20T14:18:15;28.50;77.50
4425;DHT22;2225;53.568;13.266;2022-08-20T14:20:42;28.40;77.40
4425;DHT22;2225;53.568;13.266;2022-08-20T14:23:11;28.40;77.90
4425;DHT22;2225;53.568;13.266;2022-08-20T14:25:38;28.40;78.30
4425;DHT22;2225;53.568;13.266;2022-08-20T14:28:15;28.30;78.50
4425;DHT22;2225;53.568;13.266;2022-08-20T14:30:47;28.30;78.90
4425;DHT22;2225;53.568;13.266;2022-08-20T14:33:19;28.30;79.30
4425;DHT22;2225;53.568;13.266;2022-08-20T14:35:47;28.30;78.90
4425;DHT22;2225;53.568;13.266;2022-08-20T14:38:14;28.30;79.40
4425;DHT22;2225;53.568;13.266;2022-08-20T14:40:41;28.30;79.30
4425;DHT22;2225;53.568;13.266;2022-08-20T14:43:08;28.40;79.50
4425;DHT22;2225;53.568;13.266;2022-08-20T14:45:35;28.40;79.50
4425;DHT22;2225;53.568;13.266;2022-08-20T14:48:06;28.40;79.50
4425;DHT22;2225;53.568;13.266;2022-08-20T14:50:35;28.40;80.00
4425;DHT22;2225;53.568;13.266;2022-08-20T14:53:03;28.40;79.30
4425;DHT22;2225;53.568;13.266;2022-08-20T14:55:33;28.40;79.20
4425;DHT22;2225;53.568;13.266;2022-08-20T14:58:10;28.50;79.10
4425;DHT22;2225;53.568;13.266;2022-08-20T15:00:38;28.50;79.00
4425;DHT22;2225;53.568;13.266;2022-08-20T15:03:05;28.40;78.60
4425;DHT22;2225;53.568;13.266;2022-08-20T15:05:33;28.40;78.10
4425;DHT22;2225;53.568;13.266;2022-08-20T15:08:05;28.40;78.30
4425;DHT22;2225;53.568;13.266;2022-08-20T15:10:34;28.30;78.40
4425;DHT22;2225;53.568;13.266;2022-08-20T15:13:01;28.30;78.80
4425;DHT22;2225;53.568;13.266;2022-08-20T15:15:28;28.30;78.70
4425;DHT22;2225;53.568;13.266;2022-08-20T15:17:57;28.20;79.10
4425;DHT22;2225;53.568;13.266;2022-08-20T15:20:29;28.20;79.50
4425;DHT22;2225;53.568;13.266;2022-08-20T15:22:57;28.20;79.50
4425;DHT22;2225;53.568;13.266;2022-08-20T15:25:28;28.20;79.00
4425;DHT22;2225;53.568;13.266;2022-08-20T15:28:04;28.20;79.00
4425;DHT22;2225;53.568;13.266;2022-08-20T15:30:32;28.20;79.50
4425;DHT22;2225;53.568;13.266;2022-08-20T15:32:59;28.20;79.60
4425;DHT22;2225;53.568;13.266;2022-08-20T15:35:27;28.20;80.00
4425;DHT22;2225;53.568;13.266;2022-08-20T15:37:56;28.20;80.00
4425;DHT22;2225;53.568;13.266;2022-08-20T15:40:25;28.20;80.00
4425;DHT22;2225;53.568;13.266;2022-08-20T15:42:59;28.20;80.00
4425;DHT22;2225;53.568;13.266;2022-08-20T15:45:27;28.20;80.00
4425;DHT22;2225;53.568;13.266;2022-08-20T15:50:56;28.20;80.00
4425;DHT22;2225;53.568;13.266;2022-08-20T16:02:01;28.20;80.00
4425;DHT22;2225;53.568;13.266;2022-08-20T16:07:42;28.20;78.00
4425;DHT22;2225;53.568;13.266;2022-08-20T16:10:29;28.20;77.70
4425;DHT22;2225;53.568;13.266;2022-08-20T16:13:23;28.20;77.70
4425;DHT22;2225;53.568;13.266;2022-08-20T16:16:00;28.20;75.90
4425;DHT22;2225;53.568;13.266;2022-08-20T16:18:34;28.10;75.70
4425;DHT22;2225;53.568;13.266;2022-08-20T16:21:09;28.10;74.10
4425;DHT22;2225;53.568;13.266;2022-08-20T16:23:40;28.10;74.30
4425;DHT22;2225;53.568;13.266;2022-08-20T16:26:43;28.00;73.60